Time;durP1;ratioP1;P1;durP2;ratioP2;P2;SDS_P1;SDS_P2;PMS_P1;PMS_P2;Temp;Humidity;BMP_temperature;BMP_pressure;BME280_temperature;BME280_humidity;BME280_pressure;Samples;Min_cycle;Max_cycle;Signal;HPM_P1;HPM_P2
2023/02/02 05:51:39;;;;;;;10.00;3.90;;;;;;;0.02;100.00;99413.41;108664;1276;22563;-44
2023/02/02 10:13:43;;;;;;;12.10;6.50;;;;;;;3.92;89.67;99439.67;109769;1276;22585;-44
2023/02/02 10:16:20;;;;;;;9.90;6.20;;;;;;;3.99;89.20;99438.03;111723;1260;23230;-37
2023/02/02 10:18:59;;;;;;;11.40;6.00;;;;;;;4.07;88.08;99434.34;110809;1260;22976;-43
2023/02/02 10:22:05;;;;;;;10.90;6.40;;;;;;;4.24;87.85;99426.44;111795;1260;22377;-37
2023/02/02 10:24:35;;;;;;;10.60;5.70;;;;;;;4.66;87.97;99424.48;109901;1269;22706;-39
2023/02/02 10:27:15;;;;;;;13.20;7.20;;;;;;;5.04;86.37;99425.86;110379;1269;23188;-37
2023/02/02 10:29:54;;;;;;;9.90;6.80;;;;;;;5.52;84.23;99421.19;110560;1269;22717;-37
2023/02/02 10:32:55;;;;;;;9.50;6.30;;;;;;;5.93;80.94;99423.35;110386;1269;22449;-38
2023/02/02 10:35:28;;;;;;;21.20;6.90;;;;;;;6.16;78.66;99426.75;110514;1269;23047;-38
2023/02/02 10:38:37;;;;;;;11.00;6.70;;;;;;;6.01;78.36;99423.73;110631;1269;22481;-37
2023/02/02 10:41:04;;;;;;;15.50;7.10;;;;;;;5.62;79.42;99424.19;110597;1269;22413;-37
2023/02/02 10:43:46;;;;;;;12.30;6.90;;;;;;;5.30;80.05;99429.86;110503;1269;24240;-38
2023/02/02 10:46:24;;;;;;;10.60;6.00;;;;;;;4.98;80.96;99431.67;110552;1269;22360;-38
2023/02/02 10:48:59;;;;;;;13.00;6.90;;;;;;;4.77;81.91;99434.42;110589;1269;22450;-37
2023/02/02 10:51:31;;;;;;;11.10;6.40;;;;;;;4.61;82.64;99434.43;110553;1269;22393;-38
2023/02/02 10:53:59;;;;;;;11.40;6.80;;;;;;;4.48;83.38;99429.12;110700;1269;22485;-37
2023/02/02 10:56:36;;;;;;;10.10;6.60;;;;;;;4.37;83.35;99431.08;110720;1269;22402;-37
2023/02/02 10:59:05;;;;;;;10.30;6.00;;;;;;;4.26;83.35;99435.45;110805;1269;22323;-38
2023/02/02 11:01:32;;;;;;;11.90;5.90;;;;;;;4.19;83.22;99436.90;111877;1253;22386;-38
2023/02/02 11:06:49;;;;;;;9.40;5.90;;;;;;;4.08;83.82;99438.33;111470;1253;23597;-36
2023/02/02 11:09:18;;;;;;;12.40;7.50;;;;;;;4.05;84.17;99434.66;112401;1253;22395;-37
2023/02/02 11:12:09;;;;;;;15.30;7.40;;;;;;;4.11;85.33;99434.39;112422;1253;22290;-37
2023/02/02 11:14:46;;;;;;;11.50;7.40;;;;;;;4.28;84.62;99438.05;112317;1253;22402;-37
2023/02/02 11:17:21;;;;;;;10.20;6.90;;;;;;;4.55;83.84;99435.92;112393;1253;22401;-37
2023/02/02 11:19:50;;;;;;;12.00;6.20;;;;;;;4.99;83.15;99434.80;112008;1250;22290;-45
2023/02/02 11:22:29;;;;;;;10.40;6.40;;;;;;;5.25;80.92;99434.49;112625;1249;22344;-43
2023/02/02 11:24:56;;;;;;;7.80;5.50;;;;;;;5.16;79.54;99427.34;112742;1249;23245;-44
2023/02/02 11:27:28;;;;;;;12.00;5.90;;;;;;;5.00;80.39;99432.04;112791;1249;22373;-44
2023/02/02 11:29:55;;;;;;;9.20;5.00;;;;;;;5.14;79.54;99432.85;112440;1249;22214;-49
2023/02/02 11:32:28;;;;;;;11.80;6.40;;;;;;;5.44;79.05;99427.38;112562;1249;22362;-46
2023/02/02 11:35:01;;;;;;;;;;;;;;;5.88;77.50;99424.36;112713;1249;22365;-44
2023/02/02 11:37:28;;;;;;;8.60;6.40;;;;;;;6.34;75.98;99425.27;112762;1249;23304;-44
2023/02/02 11:40:16;;;;;;;8.20;5.30;;;;;;;6.78;74.55;99420.69;112629;1249;22385;-44
2023/02/02 11:42:46;;;;;;;20.80;6.30;;;;;;;7.22;72.27;99415.15;112632;1249;23037;-45
2023/02/02 11:45:18;;;;;;;10.40;6.50;;;;;;;7.40;70.59;99412.36;112773;1249;23436;-45
2023/02/02 11:47:45;;;;;;;9.90;6.40;;;;;;;7.28;70.38;99414.13;112724;1249;23134;-45
2023/02/02 11:50:22;;;;;;;10.10;6.70;;;;;;;7.06;69.41;99422.09;112643;1249;22802;-37
2023/02/02 11:52:49;;;;;;;11.70;7.10;;;;;;;6.81;69.33;99425.02;112502;1249;23110;-38
2023/02/02 11:55:17;;;;;;;11.00;6.40;;;;;;;6.78;69.36;99421.38;112630;1249;22471;-38
2023/02/02 11:58:17;;;;;;;11.60;7.10;;;;;;;6.97;69.10;99420.71;112902;1249;23236;-38
2023/02/02 12:00:46;;;;;;;9.80;5.70;;;;;;;7.49;68.08;99416.35;112882;1249;22633;-45
2023/02/02 12:03:26;;;;;;;8.40;5.20;;;;;;;7.90;66.92;99413.30;112789;1249;23605;-45
2023/02/02 12:05:53;;;;;;;7.50;5.20;;;;;;;8.06;65.35;99410.98;112428;1249;23127;-45
2023/02/02 12:08:19;;;;;;;8.00;4.80;;;;;;;8.02;63.86;99418.98;112754;1249;22265;-38
2023/02/02 12:10:49;;;;;;;7.10;4.70;;;;;;;7.66;63.18;99417.52;112887;1249;22422;-38
2023/02/02 12:13:42;;;;;;;8.00;5.40;;;;;;;7.12;64.46;99421.40;112779;1249;22252;-38
2023/02/02 12:16:38;;;;;;;9.00;5.20;;;;;;;6.64;66.48;99422.91;112932;1249;22377;-38
2023/02/02 12:19:33;;;;;;;8.20;5.40;;;;;;;6.54;68.25;99421.17;112891;1241;22377;-37
2023/02/02 12:22:34;;;;;;;8.90;5.00;;;;;;;6.80;68.27;99427.96;112908;1249;23074;-45
2023/02/02 12:25:13;;;;;;;8.30;4.80;;;;;;;6.90;67.20;99433.88;110597;1256;22289;-37
2023/02/02 12:27:58;;;;;;;8.50;5.00;;;;;;;7.07;66.24;99432.84;111426;1255;25436;-45
2023/02/02 12:30:49;;;;;;;5.60;4.00;;;;;;;6.98;65.80;99434.23;110232;1256;23203;-44
2023/02/02 12:33:29;;;;;;;8.30;4.50;;;;;;;6.65;66.65;99435.04;111762;1256;22526;-45
2023/02/02 12:36:14;;;;;;;6.30;3.60;;;;;;;6.41;67.40;99443.48;110720;1256;23342;-37
2023/02/02 12:39:06;;;;;;;8.40;3.90;;;;;;;6.27;67.19;99444.98;112348;1256;22353;-38
2023/02/02 12:42:04;;;;;;;7.10;4.50;;;;;;;6.10;67.89;99444.23;112223;1256;22414;-38
2023/02/02 12:45:08;;;;;;;5.80;4.00;;;;;;;6.22;68.41;99447.73;111995;1256;22520;-38
2023/02/02 12:48:29;;;;;;;6.10;4.20;;;;;;;6.65;67.57;99449.08;111247;1256;22527;-37
2023/02/02 12:51:26;;;;;;;7.40;4.40;;;;;;;7.10;66.20;99440.83;111775;1262;23102;-38
2023/02/02 12:54:16;;;;;;;7.50;3.70;;;;;;;7.18;64.88;99446.04;111764;1262;22783;-44
2023/02/02 12:57:05;;;;;;;12.80;6.10;;;;;;;6.66;65.50;99446.66;110382;1262;22285;-37
2023/02/02 12:59:38;;;;;;;14.70;8.20;;;;;;;6.20;67.26;99450.32;111738;1262;22491;-36
2023/02/02 13:02:21;;;;;;;8.10;5.50;;;;;;;5.88;68.91;99455.68;111289;1257;22360;-37
2023/02/02 13:05:16;;;;;;;8.60;5.40;;;;;;;5.66;70.40;99454.84;111425;1258;22526;-49
2023/02/02 13:07:52;;;;;;;7.10;4.70;;;;;;;5.46;71.14;99456.96;110204;1257;22513;-46
2023/02/02 13:10:27;;;;;;;12.90;6.50;;;;;;;5.27;72.33;99454.23;112142;1257;22440;-39
2023/02/02 13:13:11;;;;;;;18.50;8.10;;;;;;;5.13;73.57;99456.01;112066;1257;23120;-44
2023/02/02 13:15:40;;;;;;;16.00;8.30;;;;;;;4.97;74.18;99457.42;111250;1257;22502;-45
2023/02/02 13:18:13;;;;;;;15.60;7.80;;;;;;;4.83;75.25;99457.98;112016;1257;23729;-38
2023/02/02 13:20:45;;;;;;;32.40;9.00;;;;;;;4.72;76.36;99457.17;111575;1257;22526;-44
2023/02/02 13:23:13;;;;;;;23.20;11.30;;;;;;;4.61;76.94;99455.00;111580;1258;22875;-38
2023/02/02 13:25:43;;;;;;;17.00;8.90;;;;;;;4.53;77.57;99449.55;111710;1249;22411;-45
2023/02/02 13:28:16;;;;;;;10.20;6.70;;;;;;;4.48;78.48;99460.54;110709;1249;25224;-50
2023/02/02 13:30:44;;;;;;;11.90;6.10;;;;;;;4.42;79.24;99462.91;112367;1249;23272;-38
2023/02/02 13:33:19;;;;;;;13.50;8.30;;;;;;;4.41;79.95;99463.77;112991;1249;22471;-38
2023/02/02 13:35:54;;;;;;;14.10;8.40;;;;;;;4.40;80.55;99464.42;110305;1234;22507;-40
2023/02/02 13:38:25;;;;;;;12.00;6.20;;;;;;;4.39;80.95;99469.77;110867;1249;22494;-37
2023/02/02 13:40:54;;;;;;;9.20;6.60;;;;;;;4.34;79.57;99470.75;111817;1249;22547;-40
2023/02/02 13:43:28;;;;;;;10.60;5.20;;;;;;;4.25;79.61;99469.78;112551;1249;22268;-38
2023/02/02 13:46:04;;;;;;;8.10;5.00;;;;;;;4.13;79.69;99473.94;113011;1249;22399;-38
